sensor_id;sensor_type;location;lat;lon;timestamp;P1;durP1;ratioP1;P2;durP2;ratioP2
14603;SDS011;7388;51.078;13.740;2022-09-06T00:01:50;10.90;;;9.83;;
14603;SDS011;7388;51.078;13.740;2022-09-06T00:04:16;10.97;;;9.87;;
14603;SDS011;7388;51.078;13.740;2022-09-06T00:06:41;11.27;;;10.17;;
14603;SDS011;7388;51.078;13.740;2022-09-06T00:09:07;12.70;;;11.50;;
14603;SDS011;7388;51.078;13.740;2022-09-06T00:11:33;12.40;;;11.17;;
14603;SDS011;7388;51.078;13.740;2022-09-06T00:13:59;11.07;;;9.87;;
14603;SDS011;7388;51.078;13.740;2022-09-06T00:16:24;11.67;;;10.40;;
14603;SDS011;7388;51.078;13.740;2022-09-06T00:18:53;11.53;;;10.50;;
14603;SDS011;7388;51.078;13.740;2022-09-06T00:21:21;10.70;;;9.70;;
14603;SDS011;7388;51.078;13.740;2022-09-06T00:23:49;11.23;;;10.03;;
14603;SDS011;7388;51.078;13.740;2022-09-06T00:26:16;15.23;;;10.20;;
14603;SDS011;7388;51.078;13.740;2022-09-06T00:28:42;11.40;;;10.30;;
14603;SDS011;7388;51.078;13.740;2022-09-06T00:31:11;12.47;;;11.27;;
14603;SDS011;7388;51.078;13.740;2022-09-06T00:33:40;11.60;;;10.50;;
14603;SDS011;7388;51.078;13.740;2022-09-06T00:36:06;14.90;;;12.20;;
14603;SDS011;7388;51.078;13.740;2022-09-06T00:38:33;11.20;;;10.20;;
14603;SDS011;7388;51.078;13.740;2022-09-06T00:40:59;11.67;;;10.57;;
14603;SDS011;7388;51.078;13.740;2022-09-06T00:43:25;13.50;;;12.30;;
14603;SDS011;7388;51.078;13.740;2022-09-06T00:45:51;12.73;;;11.40;;
14603;SDS011;7388;51.078;13.740;2022-09-06T00:48:17;11.07;;;9.87;;
14603;SDS011;7388;51.078;13.740;2022-09-06T00:50:44;12.67;;;11.43;;
14603;SDS011;7388;51.078;13.740;2022-09-06T00:53:13;11.90;;;10.73;;
14603;SDS011;7388;51.078;13.740;2022-09-06T00:55:39;15.10;;;11.20;;
14603;SDS011;7388;51.078;13.740;2022-09-06T00:58:07;11.63;;;9.80;;
14603;SDS011;7388;51.078;13.740;2022-09-06T01:00:33;12.63;;;11.43;;
14603;SDS011;7388;51.078;13.740;2022-09-06T01:02:59;11.20;;;10.10;;
14603;SDS011;7388;51.078;13.740;2022-09-06T01:05:27;12.80;;;9.83;;
14603;SDS011;7388;51.078;13.740;2022-09-06T01:08:15;12.80;;;11.50;;
14603;SDS011;7388;51.078;13.740;2022-09-06T01:13:52;11.87;;;10.67;;
14603;SDS011;7388;51.078;13.740;2022-09-06T01:16:33;10.90;;;9.90;;
14603;SDS011;7388;51.078;13.740;2022-09-06T01:19:43;19.90;;;11.90;;
14603;SDS011;7388;51.078;13.740;2022-09-06T01:25:13;11.00;;;9.73;;
14603;SDS011;7388;51.078;13.740;2022-09-06T01:30:36;11.67;;;10.43;;
14603;SDS011;7388;51.078;13.740;2022-09-06T01:36:02;12.03;;;10.80;;
14603;SDS011;7388;51.078;13.740;2022-09-06T01:38:30;11.93;;;10.27;;
14603;SDS011;7388;51.078;13.740;2022-09-06T01:40:56;11.43;;;10.33;;
14603;SDS011;7388;51.078;13.740;2022-09-06T01:43:23;10.70;;;9.70;;
14603;SDS011;7388;51.078;13.740;2022-09-06T01:51:12;9.77;;;8.87;;
14603;SDS011;7388;51.078;13.740;2022-09-06T02:04:55;11.90;;;9.90;;
14603;SDS011;7388;51.078;13.740;2022-09-06T02:07:30;11.60;;;10.40;;
14603;SDS011;7388;51.078;13.740;2022-09-06T02:10:06;12.30;;;9.80;;
14603;SDS011;7388;51.078;13.740;2022-09-06T02:12:37;11.63;;;10.53;;
14603;SDS011;7388;51.078;13.740;2022-09-06T02:15:14;11.00;;;9.90;;
14603;SDS011;7388;51.078;13.740;2022-09-06T02:17:49;10.90;;;9.90;;
14603;SDS011;7388;51.078;13.740;2022-09-06T02:20:21;10.73;;;9.70;;
14603;SDS011;7388;51.078;13.740;2022-09-06T02:22:51;10.33;;;9.33;;
14603;SDS011;7388;51.078;13.740;2022-09-06T02:25:22;11.37;;;10.27;;
14603;SDS011;7388;51.078;13.740;2022-09-06T02:27:52;12.40;;;11.20;;
14603;SDS011;7388;51.078;13.740;2022-09-06T02:30:19;11.13;;;9.23;;
14603;SDS011;7388;51.078;13.740;2022-09-06T02:32:47;16.30;;;10.40;;
14603;SDS011;7388;51.078;13.740;2022-09-06T02:35:20;11.67;;;10.50;;
14603;SDS011;7388;51.078;13.740;2022-09-06T02:37:46;12.00;;;10.80;;
14603;SDS011;7388;51.078;13.740;2022-09-06T02:40:13;10.63;;;9.63;;
14603;SDS011;7388;51.078;13.740;2022-09-06T02:42:38;12.17;;;10.03;;
14603;SDS011;7388;51.078;13.740;2022-09-06T02:45:06;12.88;;;10.13;;
14603;SDS011;7388;51.078;13.740;2022-09-06T02:47:32;11.17;;;10.07;;
14603;SDS011;7388;51.078;13.740;2022-09-06T02:49:58;12.40;;;10.43;;
14603;SDS011;7388;51.078;13.740;2022-09-06T02:52:23;11.00;;;10.00;;
14603;SDS011;7388;51.078;13.740;2022-09-06T02:54:49;9.77;;;8.77;;
14603;SDS011;7388;51.078;13.740;2022-09-06T02:57:15;10.13;;;9.10;;
14603;SDS011;7388;51.078;13.740;2022-09-06T02:59:41;10.87;;;9.50;;
14603;SDS011;7388;51.078;13.740;2022-09-06T03:02:07;11.10;;;10.00;;
14603;SDS011;7388;51.078;13.740;2022-09-06T03:04:33;10.50;;;9.30;;
14603;SDS011;7388;51.078;13.740;2022-09-06T03:06:58;9.97;;;9.00;;
14603;SDS011;7388;51.078;13.740;2022-09-06T03:09:24;12.70;;;11.50;;
14603;SDS011;7388;51.078;13.740;2022-09-06T03:11:50;12.57;;;9.90;;
14603;SDS011;7388;51.078;13.740;2022-09-06T03:14:16;12.87;;;11.53;;
14603;SDS011;7388;51.078;13.740;2022-09-06T03:16:43;11.87;;;10.00;;
14603;SDS011;7388;51.078;13.740;2022-09-06T03:19:09;12.20;;;11.00;;
14603;SDS011;7388;51.078;13.740;2022-09-06T03:21:35;11.00;;;9.90;;
14603;SDS011;7388;51.078;13.740;2022-09-06T03:24:00;11.93;;;10.60;;
14603;SDS011;7388;51.078;13.740;2022-09-06T03:26:26;11.93;;;9.90;;
14603;SDS011;7388;51.078;13.740;2022-09-06T03:28:54;11.00;;;9.90;;
14603;SDS011;7388;51.078;13.740;2022-09-06T03:31:21;11.07;;;10.00;;
14603;SDS011;7388;51.078;13.740;2022-09-06T03:33:46;9.88;;;8.95;;
14603;SDS011;7388;51.078;13.740;2022-09-06T03:36:12;12.40;;;10.80;;
14603;SDS011;7388;51.078;13.740;2022-09-06T03:38:39;11.48;;;10.48;;
14603;SDS011;7388;51.078;13.740;2022-09-06T03:41:05;13.57;;;10.53;;
14603;SDS011;7388;51.078;13.740;2022-09-06T03:43:31;12.00;;;10.83;;
14603;SDS011;7388;51.078;13.740;2022-09-06T03:45:57;9.65;;;8.73;;
14603;SDS011;7388;51.078;13.740;2022-09-06T03:48:23;11.20;;;10.10;;
14603;SDS011;7388;51.078;13.740;2022-09-06T03:50:52;10.82;;;9.82;;
14603;SDS011;7388;51.078;13.740;2022-09-06T03:53:19;10.45;;;9.43;;
14603;SDS011;7388;51.078;13.740;2022-09-06T03:55:47;10.50;;;9.50;;
14603;SDS011;7388;51.078;13.740;2022-09-06T03:58:15;11.38;;;10.20;;
14603;SDS011;7388;51.078;13.740;2022-09-06T04:00:42;11.40;;;10.25;;
14603;SDS011;7388;51.078;13.740;2022-09-06T04:03:08;12.80;;;11.55;;
14603;SDS011;7388;51.078;13.740;2022-09-06T04:05:34;11.10;;;10.10;;
14603;SDS011;7388;51.078;13.740;2022-09-06T04:08:00;12.63;;;10.97;;
14603;SDS011;7388;51.078;13.740;2022-09-06T04:10:26;11.63;;;10.53;;
14603;SDS011;7388;51.078;13.740;2022-09-06T04:12:52;11.45;;;10.38;;
14603;SDS011;7388;51.078;13.740;2022-09-06T04:15:18;12.47;;;11.17;;
14603;SDS011;7388;51.078;13.740;2022-09-06T04:17:44;12.10;;;10.87;;
14603;SDS011;7388;51.078;13.740;2022-09-06T04:20:11;14.50;;;10.00;;
14603;SDS011;7388;51.078;13.740;2022-09-06T04:22:38;10.60;;;9.60;;
14603;SDS011;7388;51.078;13.740;2022-09-06T04:25:03;11.90;;;9.60;;
14603;SDS011;7388;51.078;13.740;2022-09-06T04:27:30;15.02;;;10.30;;
14603;SDS011;7388;51.078;13.740;2022-09-06T04:29:56;12.40;;;10.70;;
14603;SDS011;7388;51.078;13.740;2022-09-06T04:32:22;14.60;;;9.90;;
14603;SDS011;7388;51.078;13.740;2022-09-06T04:34:48;12.07;;;8.82;;
14603;SDS011;7388;51.078;13.740;2022-09-06T04:37:13;11.73;;;10.60;;
14603;SDS011;7388;51.078;13.740;2022-09-06T04:39:46;15.43;;;11.15;;
14603;SDS011;7388;51.078;13.740;2022-09-06T04:42:13;11.07;;;10.00;;
14603;SDS011;7388;51.078;13.740;2022-09-06T04:44:39;11.60;;;10.50;;
14603;SDS011;7388;51.078;13.740;2022-09-06T04:47:06;11.73;;;10.55;;
14603;SDS011;7388;51.078;13.740;2022-09-06T04:49:38;13.55;;;10.40;;
14603;SDS011;7388;51.078;13.740;2022-09-06T04:52:05;23.70;;;12.30;;
14603;SDS011;7388;51.078;13.740;2022-09-06T04:54:32;11.63;;;10.50;;
14603;SDS011;7388;51.078;13.740;2022-09-06T04:56:58;13.63;;;11.40;;
14603;SDS011;7388;51.078;13.740;2022-09-06T04:59:23;12.57;;;10.97;;
14603;SDS011;7388;51.078;13.740;2022-09-06T05:01:49;13.43;;;12.03;;
14603;SDS011;7388;51.078;13.740;2022-09-06T05:04:15;15.50;;;12.07;;
14603;SDS011;7388;51.078;13.740;2022-09-06T05:06:41;12.50;;;11.30;;
14603;SDS011;7388;51.078;13.740;2022-09-06T05:09:07;13.75;;;11.13;;
14603;SDS011;7388;51.078;13.740;2022-09-06T05:11:33;13.98;;;11.45;;
14603;SDS011;7388;51.078;13.740;2022-09-06T05:13:59;14.00;;;12.50;;
14603;SDS011;7388;51.078;13.740;2022-09-06T05:16:25;14.50;;;12.93;;
14603;SDS011;7388;51.078;13.740;2022-09-06T05:18:51;15.38;;;11.68;;
14603;SDS011;7388;51.078;13.740;2022-09-06T05:21:17;16.07;;;13.97;;
14603;SDS011;7388;51.078;13.740;2022-09-06T05:23:43;12.40;;;10.85;;
14603;SDS011;7388;51.078;13.740;2022-09-06T05:26:08;13.47;;;12.10;;
14603;SDS011;7388;51.078;13.740;2022-09-06T05:28:35;17.30;;;12.90;;
14603;SDS011;7388;51.078;13.740;2022-09-06T05:31:10;15.77;;;13.97;;
14603;SDS011;7388;51.078;13.740;2022-09-06T05:33:46;14.13;;;11.82;;
14603;SDS011;7388;51.078;13.740;2022-09-06T05:36:12;15.17;;;12.30;;
14603;SDS011;7388;51.078;13.740;2022-09-06T05:38:38;13.90;;;12.50;;
14603;SDS011;7388;51.078;13.740;2022-09-06T05:41:03;15.40;;;13.80;;
14603;SDS011;7388;51.078;13.740;2022-09-06T05:43:29;13.83;;;12.33;;
14603;SDS011;7388;51.078;13.740;2022-09-06T05:45:55;22.13;;;13.47;;
14603;SDS011;7388;51.078;13.740;2022-09-06T05:48:21;19.17;;;11.80;;
14603;SDS011;7388;51.078;13.740;2022-09-06T05:50:46;17.33;;;13.90;;
14603;SDS011;7388;51.078;13.740;2022-09-06T05:53:22;17.53;;;12.87;;
14603;SDS011;7388;51.078;13.740;2022-09-06T05:55:48;18.80;;;15.70;;
14603;SDS011;7388;51.078;13.740;2022-09-06T05:58:14;12.87;;;11.03;;
14603;SDS011;7388;51.078;13.740;2022-09-06T06:00:40;14.63;;;12.07;;
14603;SDS011;7388;51.078;13.740;2022-09-06T06:03:05;12.80;;;11.43;;
14603;SDS011;7388;51.078;13.740;2022-09-06T06:05:31;16.20;;;12.17;;
14603;SDS011;7388;51.078;13.740;2022-09-06T06:07:57;12.10;;;10.90;;
14603;SDS011;7388;51.078;13.740;2022-09-06T06:10:23;14.63;;;10.90;;
14603;SDS011;7388;51.078;13.740;2022-09-06T06:12:49;17.07;;;13.80;;
14603;SDS011;7388;51.078;13.740;2022-09-06T06:15:15;13.00;;;11.47;;
14603;SDS011;7388;51.078;13.740;2022-09-06T06:17:41;12.60;;;11.40;;
14603;SDS011;7388;51.078;13.740;2022-09-06T06:20:07;13.97;;;11.80;;
14603;SDS011;7388;51.078;13.740;2022-09-06T06:22:33;13.27;;;11.80;;
14603;SDS011;7388;51.078;13.740;2022-09-06T06:24:59;14.27;;;11.70;;
14603;SDS011;7388;51.078;13.740;2022-09-06T06:27:24;14.00;;;12.57;;
14603;SDS011;7388;51.078;13.740;2022-09-06T06:29:50;12.93;;;11.70;;
14603;SDS011;7388;51.078;13.740;2022-09-06T06:32:16;22.50;;;12.30;;
14603;SDS011;7388;51.078;13.740;2022-09-06T06:34:42;17.13;;;12.00;;
14603;SDS011;7388;51.078;13.740;2022-09-06T06:37:08;13.17;;;11.87;;
14603;SDS011;7388;51.078;13.740;2022-09-06T06:39:33;12.67;;;11.03;;
14603;SDS011;7388;51.078;13.740;2022-09-06T06:41:59;11.53;;;10.53;;
14603;SDS011;7388;51.078;13.740;2022-09-06T06:44:25;12.27;;;11.07;;
14603;SDS011;7388;51.078;13.740;2022-09-06T06:46:52;11.83;;;10.23;;
14603;SDS011;7388;51.078;13.740;2022-09-06T06:49:18;11.70;;;10.60;;
14603;SDS011;7388;51.078;13.740;2022-09-06T06:51:43;17.70;;;11.53;;
14603;SDS011;7388;51.078;13.740;2022-09-06T06:54:09;12.80;;;11.50;;
14603;SDS011;7388;51.078;13.740;2022-09-06T06:56:36;16.07;;;10.80;;
14603;SDS011;7388;51.078;13.740;2022-09-06T06:59:05;11.43;;;10.33;;
14603;SDS011;7388;51.078;13.740;2022-09-06T07:01:32;14.50;;;12.70;;
14603;SDS011;7388;51.078;13.740;2022-09-06T07:03:58;13.03;;;11.27;;
14603;SDS011;7388;51.078;13.740;2022-09-06T07:06:24;11.30;;;9.63;;
14603;SDS011;7388;51.078;13.740;2022-09-06T07:08:57;12.53;;;11.40;;
14603;SDS011;7388;51.078;13.740;2022-09-06T07:11:23;11.80;;;10.70;;
14603;SDS011;7388;51.078;13.740;2022-09-06T07:13:49;12.67;;;11.20;;
14603;SDS011;7388;51.078;13.740;2022-09-06T07:16:22;11.57;;;10.43;;
14603;SDS011;7388;51.078;13.740;2022-09-06T07:18:52;13.27;;;11.97;;
14603;SDS011;7388;51.078;13.740;2022-09-06T07:21:20;12.10;;;10.90;;
14603;SDS011;7388;51.078;13.740;2022-09-06T07:23:50;11.67;;;10.47;;
14603;SDS011;7388;51.078;13.740;2022-09-06T07:26:23;16.70;;;10.30;;
14603;SDS011;7388;51.078;13.740;2022-09-06T07:28:55;14.43;;;10.97;;
14603;SDS011;7388;51.078;13.740;2022-09-06T07:31:25;12.33;;;10.67;;
14603;SDS011;7388;51.078;13.740;2022-09-06T07:33:52;11.63;;;10.43;;
14603;SDS011;7388;51.078;13.740;2022-09-06T07:36:18;12.10;;;10.90;;
14603;SDS011;7388;51.078;13.740;2022-09-06T07:38:47;12.53;;;9.50;;
14603;SDS011;7388;51.078;13.740;2022-09-06T07:41:14;10.40;;;9.40;;
14603;SDS011;7388;51.078;13.740;2022-09-06T07:43:41;10.00;;;8.87;;
14603;SDS011;7388;51.078;13.740;2022-09-06T07:46:08;8.17;;;7.40;;
14603;SDS011;7388;51.078;13.740;2022-09-06T07:48:36;9.80;;;8.13;;
14603;SDS011;7388;51.078;13.740;2022-09-06T07:51:14;9.17;;;8.27;;
14603;SDS011;7388;51.078;13.740;2022-09-06T07:53:42;7.57;;;6.80;;
14603;SDS011;7388;51.078;13.740;2022-09-06T07:56:10;8.40;;;7.57;;
14603;SDS011;7388;51.078;13.740;2022-09-06T07:58:37;11.50;;;9.27;;
14603;SDS011;7388;51.078;13.740;2022-09-06T08:04:19;8.10;;;7.40;;
14603;SDS011;7388;51.078;13.740;2022-09-06T08:06:45;7.90;;;7.20;;
14603;SDS011;7388;51.078;13.740;2022-09-06T08:09:12;9.30;;;8.00;;
14603;SDS011;7388;51.078;13.740;2022-09-06T08:11:38;11.47;;;8.17;;
14603;SDS011;7388;51.078;13.740;2022-09-06T08:14:05;9.07;;;8.10;;
14603;SDS011;7388;51.078;13.740;2022-09-06T08:16:33;9.83;;;8.67;;
14603;SDS011;7388;51.078;13.740;2022-09-06T08:19:01;9.30;;;7.23;;
14603;SDS011;7388;51.078;13.740;2022-09-06T08:21:30;8.80;;;7.90;;
14603;SDS011;7388;51.078;13.740;2022-09-06T08:24:00;8.60;;;7.90;;
14603;SDS011;7388;51.078;13.740;2022-09-06T08:26:28;8.13;;;7.33;;
14603;SDS011;7388;51.078;13.740;2022-09-06T08:28:57;8.10;;;7.30;;
14603;SDS011;7388;51.078;13.740;2022-09-06T08:31:30;8.30;;;7.50;;
14603;SDS011;7388;51.078;13.740;2022-09-06T08:33:57;7.87;;;7.07;;
14603;SDS011;7388;51.078;13.740;2022-09-06T08:36:25;7.30;;;6.60;;
14603;SDS011;7388;51.078;13.740;2022-09-06T08:38:54;8.87;;;8.00;;
14603;SDS011;7388;51.078;13.740;2022-09-06T08:43:58;8.53;;;7.83;;
14603;SDS011;7388;51.078;13.740;2022-09-06T08:46:41;8.23;;;7.33;;
14603;SDS011;7388;51.078;13.740;2022-09-06T08:49:19;8.23;;;7.53;;
14603;SDS011;7388;51.078;13.740;2022-09-06T08:51:50;8.37;;;7.60;;
14603;SDS011;7388;51.078;13.740;2022-09-06T08:57:08;8.00;;;7.20;;
14603;SDS011;7388;51.078;13.740;2022-09-06T08:59:54;7.97;;;7.20;;
14603;SDS011;7388;51.078;13.740;2022-09-06T09:02:25;9.17;;;6.10;;
14603;SDS011;7388;51.078;13.740;2022-09-06T09:04:56;11.70;;;7.87;;
14603;SDS011;7388;51.078;13.740;2022-09-06T09:07:32;12.33;;;8.17;;
14603;SDS011;7388;51.078;13.740;2022-09-06T09:10:22;7.40;;;6.70;;
14603;SDS011;7388;51.078;13.740;2022-09-06T09:12:52;6.97;;;6.27;;
14603;SDS011;7388;51.078;13.740;2022-09-06T09:15:18;8.80;;;7.00;;
14603;SDS011;7388;51.078;13.740;2022-09-06T09:17:45;7.70;;;7.10;;
14603;SDS011;7388;51.078;13.740;2022-09-06T09:20:14;8.13;;;7.17;;
14603;SDS011;7388;51.078;13.740;2022-09-06T09:22:41;6.80;;;6.20;;
14603;SDS011;7388;51.078;13.740;2022-09-06T09:25:08;8.67;;;7.97;;
14603;SDS011;7388;51.078;13.740;2022-09-06T09:27:41;10.73;;;9.43;;
14603;SDS011;7388;51.078;13.740;2022-09-06T09:30:09;8.90;;;7.13;;
14603;SDS011;7388;51.078;13.740;2022-09-06T09:32:40;7.53;;;6.83;;
14603;SDS011;7388;51.078;13.740;2022-09-06T09:37:48;7.67;;;6.90;;
14603;SDS011;7388;51.078;13.740;2022-09-06T09:42:49;7.67;;;6.97;;
14603;SDS011;7388;51.078;13.740;2022-09-06T09:47:49;7.47;;;6.43;;
14603;SDS011;7388;51.078;13.740;2022-09-06T09:50:28;8.77;;;7.90;;
14603;SDS011;7388;51.078;13.740;2022-09-06T09:53:08;7.47;;;6.77;;
14603;SDS011;7388;51.078;13.740;2022-09-06T09:55:35;9.03;;;7.67;;
14603;SDS011;7388;51.078;13.740;2022-09-06T09:58:01;8.90;;;8.10;;
14603;SDS011;7388;51.078;13.740;2022-09-06T10:00:35;7.60;;;6.60;;
14603;SDS011;7388;51.078;13.740;2022-09-06T10:03:12;10.30;;;8.07;;
14603;SDS011;7388;51.078;13.740;2022-09-06T10:05:53;8.97;;;7.23;;
14603;SDS011;7388;51.078;13.740;2022-09-06T10:08:21;8.30;;;7.43;;
14603;SDS011;7388;51.078;13.740;2022-09-06T10:10:49;7.73;;;7.03;;
14603;SDS011;7388;51.078;13.740;2022-09-06T10:13:19;7.63;;;7.00;;
14603;SDS011;7388;51.078;13.740;2022-09-06T10:15:47;9.10;;;6.90;;
14603;SDS011;7388;51.078;13.740;2022-09-06T10:20:51;7.07;;;6.23;;
14603;SDS011;7388;51.078;13.740;2022-09-06T10:23:46;9.97;;;6.80;;
14603;SDS011;7388;51.078;13.740;2022-09-06T10:26:18;7.73;;;6.93;;
14603;SDS011;7388;51.078;13.740;2022-09-06T10:29:04;8.13;;;7.33;;
14603;SDS011;7388;51.078;13.740;2022-09-06T10:37:56;7.70;;;6.90;;
14603;SDS011;7388;51.078;13.740;2022-09-06T10:40:04;6.97;;;6.37;;
14603;SDS011;7388;51.078;13.740;2022-09-06T10:42:45;7.43;;;6.70;;
14603;SDS011;7388;51.078;13.740;2022-09-06T10:50:47;8.20;;;7.20;;
14603;SDS011;7388;51.078;13.740;2022-09-06T10:55:47;7.53;;;6.90;;
14603;SDS011;7388;51.078;13.740;2022-09-06T10:58:27;7.73;;;6.40;;
14603;SDS011;7388;51.078;13.740;2022-09-06T11:00:58;7.73;;;7.03;;
14603;SDS011;7388;51.078;13.740;2022-09-06T11:03:31;8.23;;;7.27;;
14603;SDS011;7388;51.078;13.740;2022-09-06T11:06:10;7.00;;;6.30;;
14603;SDS011;7388;51.078;13.740;2022-09-06T11:12:00;7.53;;;6.83;;
14603;SDS011;7388;51.078;13.740;2022-09-06T11:14:06;8.37;;;7.53;;
14603;SDS011;7388;51.078;13.740;2022-09-06T11:16:39;7.37;;;6.67;;
14603;SDS011;7388;51.078;13.740;2022-09-06T11:19:11;6.77;;;6.17;;
14603;SDS011;7388;51.078;13.740;2022-09-06T11:29:56;7.53;;;6.93;;
14603;SDS011;7388;51.078;13.740;2022-09-06T11:32:37;8.60;;;7.43;;
14603;SDS011;7388;51.078;13.740;2022-09-06T11:35:22;11.07;;;6.93;;
14603;SDS011;7388;51.078;13.740;2022-09-06T11:37:57;7.07;;;6.47;;
14603;SDS011;7388;51.078;13.740;2022-09-06T11:40:37;6.97;;;6.37;;
14603;SDS011;7388;51.078;13.740;2022-09-06T11:43:08;6.97;;;6.30;;
14603;SDS011;7388;51.078;13.740;2022-09-06T11:45:54;7.00;;;6.40;;
14603;SDS011;7388;51.078;13.740;2022-09-06T11:53:22;7.53;;;6.73;;
14603;SDS011;7388;51.078;13.740;2022-09-06T11:56:38;6.43;;;5.63;;
14603;SDS011;7388;51.078;13.740;2022-09-06T12:05:31;6.67;;;6.10;;
14603;SDS011;7388;51.078;13.740;2022-09-06T12:07:31;7.40;;;6.70;;
14603;SDS011;7388;51.078;13.740;2022-09-06T12:12:56;8.30;;;6.07;;
14603;SDS011;7388;51.078;13.740;2022-09-06T12:15:27;7.80;;;7.00;;
14603;SDS011;7388;51.078;13.740;2022-09-06T12:18:08;7.20;;;6.47;;
14603;SDS011;7388;51.078;13.740;2022-09-06T12:26:02;6.27;;;5.67;;
14603;SDS011;7388;51.078;13.740;2022-09-06T12:28:50;7.23;;;6.63;;
14603;SDS011;7388;51.078;13.740;2022-09-06T12:33:49;7.47;;;6.77;;
14603;SDS011;7388;51.078;13.740;2022-09-06T12:36:31;8.13;;;6.13;;
14603;SDS011;7388;51.078;13.740;2022-09-06T12:38:59;7.10;;;6.40;;
14603;SDS011;7388;51.078;13.740;2022-09-06T12:41:28;7.10;;;6.40;;
14603;SDS011;7388;51.078;13.740;2022-09-06T12:44:00;6.60;;;5.97;;
14603;SDS011;7388;51.078;13.740;2022-09-06T12:46:29;6.20;;;5.60;;
14603;SDS011;7388;51.078;13.740;2022-09-06T12:49:29;6.43;;;5.70;;
14603;SDS011;7388;51.078;13.740;2022-09-06T12:51:47;6.57;;;6.00;;
14603;SDS011;7388;51.078;13.740;2022-09-06T12:54:24;6.43;;;5.83;;
14603;SDS011;7388;51.078;13.740;2022-09-06T12:56:52;6.93;;;6.30;;
14603;SDS011;7388;51.078;13.740;2022-09-06T12:59:35;8.30;;;6.20;;
14603;SDS011;7388;51.078;13.740;2022-09-06T13:02:01;5.93;;;5.43;;
14603;SDS011;7388;51.078;13.740;2022-09-06T13:04:36;6.60;;;6.00;;
14603;SDS011;7388;51.078;13.740;2022-09-06T13:07:10;9.40;;;6.30;;
14603;SDS011;7388;51.078;13.740;2022-09-06T13:09:40;6.17;;;5.67;;
14603;SDS011;7388;51.078;13.740;2022-09-06T13:12:20;7.13;;;6.03;;
14603;SDS011;7388;51.078;13.740;2022-09-06T13:14:55;6.60;;;6.03;;
14603;SDS011;7388;51.078;13.740;2022-09-06T13:17:23;5.97;;;5.47;;
14603;SDS011;7388;51.078;13.740;2022-09-06T13:19:50;6.53;;;6.03;;
14603;SDS011;7388;51.078;13.740;2022-09-06T13:22:35;7.67;;;5.60;;
14603;SDS011;7388;51.078;13.740;2022-09-06T13:25:13;8.03;;;6.20;;
14603;SDS011;7388;51.078;13.740;2022-09-06T13:27:47;13.00;;;6.70;;
14603;SDS011;7388;51.078;13.740;2022-09-06T13:30:36;7.60;;;6.47;;
14603;SDS011;7388;51.078;13.740;2022-09-06T13:33:03;6.63;;;6.00;;
14603;SDS011;7388;51.078;13.740;2022-09-06T13:35:37;6.33;;;5.73;;
14603;SDS011;7388;51.078;13.740;2022-09-06T13:38:19;5.90;;;5.37;;
14603;SDS011;7388;51.078;13.740;2022-09-06T13:40:45;5.70;;;2.90;;
14603;SDS011;7388;51.078;13.740;2022-09-06T13:43:13;5.73;;;2.43;;
14603;SDS011;7388;51.078;13.740;2022-09-06T13:45:39;12.00;;;3.63;;
14603;SDS011;7388;51.078;13.740;2022-09-06T13:48:05;5.67;;;3.83;;
14603;SDS011;7388;51.078;13.740;2022-09-06T13:50:31;7.03;;;3.97;;
14603;SDS011;7388;51.078;13.740;2022-09-06T13:52:58;7.37;;;4.00;;
14603;SDS011;7388;51.078;13.740;2022-09-06T13:55:25;8.87;;;5.13;;
14603;SDS011;7388;51.078;13.740;2022-09-06T13:57:55;9.47;;;5.03;;
14603;SDS011;7388;51.078;13.740;2022-09-06T14:00:21;5.30;;;4.80;;
14603;SDS011;7388;51.078;13.740;2022-09-06T14:02:47;11.10;;;5.70;;
14603;SDS011;7388;51.078;13.740;2022-09-06T14:05:15;7.77;;;6.13;;
14603;SDS011;7388;51.078;13.740;2022-09-06T14:07:42;5.47;;;4.57;;
14603;SDS011;7388;51.078;13.740;2022-09-06T14:10:09;7.87;;;5.50;;
14603;SDS011;7388;51.078;13.740;2022-09-06T14:12:36;7.50;;;4.67;;
14603;SDS011;7388;51.078;13.740;2022-09-06T14:15:02;6.83;;;5.40;;
14603;SDS011;7388;51.078;13.740;2022-09-06T14:17:30;7.70;;;5.57;;
14603;SDS011;7388;51.078;13.740;2022-09-06T14:19:57;6.27;;;5.67;;
14603;SDS011;7388;51.078;13.740;2022-09-06T14:22:24;8.43;;;5.90;;
14603;SDS011;7388;51.078;13.740;2022-09-06T14:24:51;5.60;;;4.97;;
14603;SDS011;7388;51.078;13.740;2022-09-06T14:27:18;6.90;;;6.30;;
14603;SDS011;7388;51.078;13.740;2022-09-06T14:29:45;7.20;;;6.50;;
14603;SDS011;7388;51.078;13.740;2022-09-06T14:32:11;7.03;;;6.43;;
14603;SDS011;7388;51.078;13.740;2022-09-06T14:34:37;7.33;;;6.60;;
14603;SDS011;7388;51.078;13.740;2022-09-06T14:37:03;7.87;;;7.17;;
14603;SDS011;7388;51.078;13.740;2022-09-06T14:39:28;7.80;;;6.60;;
14603;SDS011;7388;51.078;13.740;2022-09-06T14:41:56;7.77;;;7.07;;
14603;SDS011;7388;51.078;13.740;2022-09-06T14:44:23;8.53;;;6.87;;
14603;SDS011;7388;51.078;13.740;2022-09-06T14:46:50;8.53;;;6.90;;
14603;SDS011;7388;51.078;13.740;2022-09-06T14:49:19;7.33;;;5.90;;
14603;SDS011;7388;51.078;13.740;2022-09-06T14:51:45;9.57;;;8.43;;
14603;SDS011;7388;51.078;13.740;2022-09-06T14:54:12;14.07;;;12.77;;
14603;SDS011;7388;51.078;13.740;2022-09-06T14:56:40;12.50;;;11.20;;
14603;SDS011;7388;51.078;13.740;2022-09-06T14:59:08;9.50;;;8.60;;
14603;SDS011;7388;51.078;13.740;2022-09-06T15:01:34;10.20;;;8.40;;
14603;SDS011;7388;51.078;13.740;2022-09-06T15:04:02;8.43;;;7.63;;
14603;SDS011;7388;51.078;13.740;2022-09-06T15:06:30;9.57;;;8.57;;
14603;SDS011;7388;51.078;13.740;2022-09-06T15:08:57;10.87;;;9.87;;
14603;SDS011;7388;51.078;13.740;2022-09-06T15:11:37;13.67;;;9.03;;
14603;SDS011;7388;51.078;13.740;2022-09-06T15:14:12;10.60;;;9.60;;
14603;SDS011;7388;51.078;13.740;2022-09-06T15:16:39;10.17;;;8.23;;
14603;SDS011;7388;51.078;13.740;2022-09-06T15:19:05;10.57;;;9.43;;
14603;SDS011;7388;51.078;13.740;2022-09-06T15:21:34;10.63;;;9.70;;
14603;SDS011;7388;51.078;13.740;2022-09-06T15:24:02;12.53;;;9.67;;
14603;SDS011;7388;51.078;13.740;2022-09-06T15:26:31;9.67;;;8.77;;
14603;SDS011;7388;51.078;13.740;2022-09-06T15:28:58;10.13;;;9.23;;
14603;SDS011;7388;51.078;13.740;2022-09-06T15:31:25;8.67;;;7.90;;
14603;SDS011;7388;51.078;13.740;2022-09-06T15:33:52;10.77;;;9.67;;
14603;SDS011;7388;51.078;13.740;2022-09-06T15:36:18;15.20;;;11.20;;
14603;SDS011;7388;51.078;13.740;2022-09-06T15:38:46;10.50;;;9.03;;
14603;SDS011;7388;51.078;13.740;2022-09-06T15:43:45;10.40;;;9.30;;
14603;SDS011;7388;51.078;13.740;2022-09-06T15:46:13;10.70;;;9.70;;
14603;SDS011;7388;51.078;13.740;2022-09-06T15:48:41;10.27;;;9.27;;
14603;SDS011;7388;51.078;13.740;2022-09-06T15:51:11;9.80;;;8.90;;
14603;SDS011;7388;51.078;13.740;2022-09-06T15:53:42;10.17;;;9.20;;
14603;SDS011;7388;51.078;13.740;2022-09-06T15:56:09;10.80;;;8.87;;
14603;SDS011;7388;51.078;13.740;2022-09-06T15:58:37;12.00;;;10.80;;
14603;SDS011;7388;51.078;13.740;2022-09-06T16:01:05;10.07;;;9.17;;
14603;SDS011;7388;51.078;13.740;2022-09-06T16:03:43;10.80;;;9.70;;
14603;SDS011;7388;51.078;13.740;2022-09-06T16:06:20;10.83;;;9.90;;
14603;SDS011;7388;51.078;13.740;2022-09-06T16:08:49;11.17;;;10.17;;
14603;SDS011;7388;51.078;13.740;2022-09-06T16:11:16;11.53;;;10.50;;
14603;SDS011;7388;51.078;13.740;2022-09-06T16:13:43;11.40;;;10.33;;
14603;SDS011;7388;51.078;13.740;2022-09-06T16:16:11;11.33;;;10.33;;
14603;SDS011;7388;51.078;13.740;2022-09-06T16:18:40;10.97;;;9.97;;
14603;SDS011;7388;51.078;13.740;2022-09-06T16:21:12;12.50;;;11.30;;
14603;SDS011;7388;51.078;13.740;2022-09-06T16:23:46;13.23;;;11.87;;